TAF Text Data
IDs:
Format:
Raw Decoded Include METAR

Data at: 1500 UTC 17 Nov 2019

METAR for:KMSP (Minneapolis-St Paul, MN, US)
Text:KMSP 171453Z 29007KT 7SM FEW013 OVC031 03/02 A2990 RMK AO2 SLP132 60000 T00330017 53002
Temperature: 3.3°C ( 38°F)
Dewpoint: 1.7°C ( 35°F) [RH = 89%]
Pressure (altimeter):29.90 inches Hg (1012.6 mb) [Sea level pressure: 1013.2 mb]
Winds:from the WNW (290 degrees) at 8 MPH (7 knots; 3.6 m/s)
Visibility: 7 sm ( 11 km)
Ceiling:3100 feet AGL
Clouds: few clouds at 1300 feet AGL, overcast cloud deck at 3100 feet AGL

TAF for:KMSP (Minneapolis-St Paul, MN, US) issued at 1451 UTC 17 Nov 2019
Text:KMSP 171451Z 1715/1818 29008KT P6SM SCT015 BKN025 OVC040
Forecast period:1500 UTC 17 November 2019 to 0200 UTC 18 November 2019
Forecast type:FROM: standard forecast or significant change
Winds:from the WNW (290 degrees) at 9 MPH (8 knots; 4.1 m/s)
Visibility:6 or more sm (10+ km)
Ceiling:2500 feet AGL
Clouds: scattered clouds at 1500 feet AGL, broken clouds at 2500 feet AGL, overcast cloud deck at 4000 feet AGL
Text:FM180200 VRB03KT P6SM OVC025
Forecast period:0200 to 1800 UTC 18 November 2019
Forecast type:FROM: standard forecast or significant change
Winds:variable direction winds at 3 MPH (3 knots; 1.5 m/s)
Visibility:6 or more sm (10+ km)
Ceiling:2500 feet AGL
Clouds: overcast cloud deck at 2500 feet AGL